KCKF Airport (Crisp County-Cordele) Information

FAA: CKF - ICAO: KCKF

KCKF Airport Location

State Georgia
County Crisp
City Cordele
KCKF Airport is 2 miles northeast of Cordele, GA.
Latitude 31-59-19.8000N
Longitude 083-46-26.1000W
Elevation 309ft

KCKF Airport METARs

METAR KCKF 181255Z AUTO 00000KT 10SM CLR M01/M02 A3024 RMK AO2 T10131025
Altimeter 30.24"
Temperature -1.3°C (29.7°F)
Wind 0° at 0KT
Clouds Skies are clear.
Visibility 10.0mi
Time observed: 2022-01-18T12:55:00Z

KCKF Airport Details

Status Operational
Activation March 1943
Ownership Public
Usage Public
Chart JACKSONVILLE
ATC on-site No
Beacon schedule sunset-sunrise
Beacon color clear green

KCKF Airport Contacts

Owner CRISP COUNTY
Owner address 210 7TH ST SOUTH, CORDELE, GA 31015
Owner phone 229-276-2672
Manager N/A
Manager address N/A, N/A
Manager phone N/A

KCKF Airport (Crisp County-Cordele) Radio Frequencies

KCKF (Airport) Radio Frequencies

UNICOM 123.05
Common traffic advisory frequency (CTAF) 123.05